sensor_id;sensor_type;location;lat;lon;timestamp;P1;durP1;ratioP1;P2;durP2;ratioP2
7831;SDS011;3961;42.058;25.586;2023-05-01T00:00:48;4.77;;;4.37;;
7831;SDS011;3961;42.058;25.586;2023-05-01T00:03:14;5.30;;;4.80;;
7831;SDS011;3961;42.058;25.586;2023-05-01T00:05:42;8.10;;;5.33;;
7831;SDS011;3961;42.058;25.586;2023-05-01T00:08:08;6.23;;;5.37;;
7831;SDS011;3961;42.058;25.586;2023-05-01T00:10:34;7.40;;;5.70;;
7831;SDS011;3961;42.058;25.586;2023-05-01T00:13:00;6.57;;;5.27;;
7831;SDS011;3961;42.058;25.586;2023-05-01T00:15:26;7.77;;;6.13;;
7831;SDS011;3961;42.058;25.586;2023-05-01T00:17:52;6.53;;;5.87;;
7831;SDS011;3961;42.058;25.586;2023-05-01T00:20:18;7.73;;;5.50;;
7831;SDS011;3961;42.058;25.586;2023-05-01T00:22:44;10.40;;;6.40;;
7831;SDS011;3961;42.058;25.586;2023-05-01T00:25:09;7.23;;;6.33;;
7831;SDS011;3961;42.058;25.586;2023-05-01T00:27:35;7.20;;;6.50;;
7831;SDS011;3961;42.058;25.586;2023-05-01T00:30:00;6.73;;;6.03;;
7831;SDS011;3961;42.058;25.586;2023-05-01T00:32:26;6.83;;;6.00;;
7831;SDS011;3961;42.058;25.586;2023-05-01T00:34:52;7.60;;;5.93;;
7831;SDS011;3961;42.058;25.586;2023-05-01T00:37:17;6.37;;;5.80;;
7831;SDS011;3961;42.058;25.586;2023-05-01T00:39:43;9.60;;;6.40;;
7831;SDS011;3961;42.058;25.586;2023-05-01T00:42:08;10.47;;;6.20;;
7831;SDS011;3961;42.058;25.586;2023-05-01T00:44:34;6.90;;;6.27;;
7831;SDS011;3961;42.058;25.586;2023-05-01T00:47:00;7.43;;;6.67;;
7831;SDS011;3961;42.058;25.586;2023-05-01T00:49:26;7.90;;;7.10;;
7831;SDS011;3961;42.058;25.586;2023-05-01T00:51:52;6.90;;;6.27;;
7831;SDS011;3961;42.058;25.586;2023-05-01T00:54:18;6.93;;;6.27;;
7831;SDS011;3961;42.058;25.586;2023-05-01T00:56:48;9.40;;;6.80;;
7831;SDS011;3961;42.058;25.586;2023-05-01T00:59:16;6.43;;;5.83;;
7831;SDS011;3961;42.058;25.586;2023-05-01T01:01:42;8.83;;;5.87;;
7831;SDS011;3961;42.058;25.586;2023-05-01T01:04:07;7.27;;;6.53;;
7831;SDS011;3961;42.058;25.586;2023-05-01T01:06:55;8.73;;;6.03;;
7831;SDS011;3961;42.058;25.586;2023-05-01T01:12:16;10.63;;;6.23;;
7831;SDS011;3961;42.058;25.586;2023-05-01T01:14:54;6.80;;;6.10;;
7831;SDS011;3961;42.058;25.586;2023-05-01T01:22:44;6.57;;;5.97;;
7831;SDS011;3961;42.058;25.586;2023-05-01T01:25:28;10.93;;;6.13;;
7831;SDS011;3961;42.058;25.586;2023-05-01T01:31:17;8.50;;;6.23;;
7831;SDS011;3961;42.058;25.586;2023-05-01T01:36:39;6.40;;;5.80;;
7831;SDS011;3961;42.058;25.586;2023-05-01T01:39:15;8.67;;;5.80;;
7831;SDS011;3961;42.058;25.586;2023-05-01T01:41:49;6.60;;;5.67;;
7831;SDS011;3961;42.058;25.586;2023-05-01T01:44:33;7.43;;;5.97;;
7831;SDS011;3961;42.058;25.586;2023-05-01T01:47:04;8.03;;;6.20;;
7831;SDS011;3961;42.058;25.586;2023-05-01T01:49:31;7.63;;;6.80;;
7831;SDS011;3961;42.058;25.586;2023-05-01T01:52:01;7.53;;;6.50;;
7831;SDS011;3961;42.058;25.586;2023-05-01T01:54:30;7.47;;;6.67;;
7831;SDS011;3961;42.058;25.586;2023-05-01T01:57:02;10.53;;;6.83;;
7831;SDS011;3961;42.058;25.586;2023-05-01T01:59:29;8.73;;;7.17;;
7831;SDS011;3961;42.058;25.586;2023-05-01T02:01:57;10.17;;;7.20;;
7831;SDS011;3961;42.058;25.586;2023-05-01T02:04:26;14.57;;;8.07;;
7831;SDS011;3961;42.058;25.586;2023-05-01T02:06:54;12.60;;;8.10;;
7831;SDS011;3961;42.058;25.586;2023-05-01T02:09:21;8.50;;;7.60;;
7831;SDS011;3961;42.058;25.586;2023-05-01T02:11:48;12.07;;;8.53;;
7831;SDS011;3961;42.058;25.586;2023-05-01T02:14:15;13.50;;;8.37;;
7831;SDS011;3961;42.058;25.586;2023-05-01T02:16:43;9.07;;;8.17;;
7831;SDS011;3961;42.058;25.586;2023-05-01T02:19:09;14.20;;;8.00;;
7831;SDS011;3961;42.058;25.586;2023-05-01T02:21:37;9.23;;;7.83;;
7831;SDS011;3961;42.058;25.586;2023-05-01T02:24:04;11.50;;;8.47;;
7831;SDS011;3961;42.058;25.586;2023-05-01T02:26:30;12.47;;;8.30;;
7831;SDS011;3961;42.058;25.586;2023-05-01T02:29:02;8.77;;;7.87;;
7831;SDS011;3961;42.058;25.586;2023-05-01T02:31:31;11.70;;;7.93;;
7831;SDS011;3961;42.058;25.586;2023-05-01T02:33:57;13.47;;;8.63;;
7831;SDS011;3961;42.058;25.586;2023-05-01T02:36:22;10.00;;;8.20;;
7831;SDS011;3961;42.058;25.586;2023-05-01T02:38:48;9.63;;;8.20;;
7831;SDS011;3961;42.058;25.586;2023-05-01T02:41:15;9.47;;;8.27;;
7831;SDS011;3961;42.058;25.586;2023-05-01T02:43:42;11.23;;;8.30;;
7831;SDS011;3961;42.058;25.586;2023-05-01T02:46:10;9.73;;;8.40;;
7831;SDS011;3961;42.058;25.586;2023-05-01T02:48:38;9.20;;;8.20;;
7831;SDS011;3961;42.058;25.586;2023-05-01T02:51:06;9.73;;;8.73;;
7831;SDS011;3961;42.058;25.586;2023-05-01T02:53:32;10.53;;;8.73;;
7831;SDS011;3961;42.058;25.586;2023-05-01T02:55:58;11.77;;;8.57;;
7831;SDS011;3961;42.058;25.586;2023-05-01T02:58:24;9.73;;;8.73;;
7831;SDS011;3961;42.058;25.586;2023-05-01T03:00:50;10.47;;;8.20;;
7831;SDS011;3961;42.058;25.586;2023-05-01T03:03:15;8.77;;;7.87;;
7831;SDS011;3961;42.058;25.586;2023-05-01T03:05:41;23.20;;;8.87;;
7831;SDS011;3961;42.058;25.586;2023-05-01T03:08:07;10.93;;;8.17;;
7831;SDS011;3961;42.058;25.586;2023-05-01T03:10:32;13.63;;;9.00;;
7831;SDS011;3961;42.058;25.586;2023-05-01T03:12:59;13.10;;;8.27;;
7831;SDS011;3961;42.058;25.586;2023-05-01T03:15:25;11.07;;;8.23;;
7831;SDS011;3961;42.058;25.586;2023-05-01T03:17:50;9.37;;;8.37;;
7831;SDS011;3961;42.058;25.586;2023-05-01T03:20:16;11.73;;;8.33;;
7831;SDS011;3961;42.058;25.586;2023-05-01T03:22:41;10.87;;;8.70;;
7831;SDS011;3961;42.058;25.586;2023-05-01T03:25:07;9.70;;;7.77;;
7831;SDS011;3961;42.058;25.586;2023-05-01T03:27:33;9.73;;;8.47;;
7831;SDS011;3961;42.058;25.586;2023-05-01T03:29:59;13.27;;;8.43;;
7831;SDS011;3961;42.058;25.586;2023-05-01T03:32:24;13.17;;;8.93;;
7831;SDS011;3961;42.058;25.586;2023-05-01T03:34:50;14.20;;;8.80;;
7831;SDS011;3961;42.058;25.586;2023-05-01T03:37:15;9.13;;;8.17;;
7831;SDS011;3961;42.058;25.586;2023-05-01T03:39:41;8.97;;;7.90;;
7831;SDS011;3961;42.058;25.586;2023-05-01T03:42:06;10.10;;;8.80;;
7831;SDS011;3961;42.058;25.586;2023-05-01T03:44:32;14.93;;;9.20;;
7831;SDS011;3961;42.058;25.586;2023-05-01T03:46:57;11.27;;;8.40;;
7831;SDS011;3961;42.058;25.586;2023-05-01T03:49:23;10.83;;;8.03;;
7831;SDS011;3961;42.058;25.586;2023-05-01T03:51:48;19.70;;;8.93;;
7831;SDS011;3961;42.058;25.586;2023-05-01T03:54:14;17.27;;;7.17;;
7831;SDS011;3961;42.058;25.586;2023-05-01T03:56:40;14.63;;;6.37;;
7831;SDS011;3961;42.058;25.586;2023-05-01T03:59:05;8.80;;;5.93;;
7831;SDS011;3961;42.058;25.586;2023-05-01T04:01:31;11.47;;;6.10;;
7831;SDS011;3961;42.058;25.586;2023-05-01T04:03:58;10.27;;;6.40;;
7831;SDS011;3961;42.058;25.586;2023-05-01T04:06:23;9.90;;;5.43;;
7831;SDS011;3961;42.058;25.586;2023-05-01T04:08:50;15.27;;;6.30;;
7831;SDS011;3961;42.058;25.586;2023-05-01T04:11:15;8.33;;;5.43;;
7831;SDS011;3961;42.058;25.586;2023-05-01T04:13:41;6.83;;;5.47;;
7831;SDS011;3961;42.058;25.586;2023-05-01T04:16:06;7.90;;;5.33;;
7831;SDS011;3961;42.058;25.586;2023-05-01T04:18:32;9.40;;;5.70;;
7831;SDS011;3961;42.058;25.586;2023-05-01T04:20:57;8.57;;;5.10;;
7831;SDS011;3961;42.058;25.586;2023-05-01T04:23:23;5.67;;;5.07;;
7831;SDS011;3961;42.058;25.586;2023-05-01T04:25:48;10.43;;;5.50;;
7831;SDS011;3961;42.058;25.586;2023-05-01T04:28:14;7.47;;;5.67;;
7831;SDS011;3961;42.058;25.586;2023-05-01T04:30:39;6.50;;;5.40;;
7831;SDS011;3961;42.058;25.586;2023-05-01T04:33:05;6.67;;;5.40;;
7831;SDS011;3961;42.058;25.586;2023-05-01T04:35:38;8.40;;;5.73;;
7831;SDS011;3961;42.058;25.586;2023-05-01T04:38:05;8.27;;;5.23;;
7831;SDS011;3961;42.058;25.586;2023-05-01T04:40:31;8.73;;;5.10;;
7831;SDS011;3961;42.058;25.586;2023-05-01T04:42:56;9.77;;;5.63;;
7831;SDS011;3961;42.058;25.586;2023-05-01T04:45:22;8.00;;;5.07;;
7831;SDS011;3961;42.058;25.586;2023-05-01T04:47:47;7.20;;;4.97;;
7831;SDS011;3961;42.058;25.586;2023-05-01T04:50:13;12.37;;;5.27;;
7831;SDS011;3961;42.058;25.586;2023-05-01T04:52:38;11.23;;;5.43;;
7831;SDS011;3961;42.058;25.586;2023-05-01T04:55:04;7.23;;;5.30;;
7831;SDS011;3961;42.058;25.586;2023-05-01T04:57:30;12.33;;;5.70;;
7831;SDS011;3961;42.058;25.586;2023-05-01T04:59:56;11.40;;;5.30;;
7831;SDS011;3961;42.058;25.586;2023-05-01T05:02:21;8.57;;;5.30;;
7831;SDS011;3961;42.058;25.586;2023-05-01T05:04:47;8.97;;;5.23;;
7831;SDS011;3961;42.058;25.586;2023-05-01T05:07:12;13.93;;;5.10;;
7831;SDS011;3961;42.058;25.586;2023-05-01T05:09:38;11.83;;;5.10;;
7831;SDS011;3961;42.058;25.586;2023-05-01T05:12:03;7.67;;;4.70;;
7831;SDS011;3961;42.058;25.586;2023-05-01T05:14:29;5.40;;;4.67;;
7831;SDS011;3961;42.058;25.586;2023-05-01T05:16:55;8.03;;;4.80;;
7831;SDS011;3961;42.058;25.586;2023-05-01T05:19:20;11.83;;;5.10;;
7831;SDS011;3961;42.058;25.586;2023-05-01T05:21:46;9.30;;;5.03;;
7831;SDS011;3961;42.058;25.586;2023-05-01T05:24:12;5.87;;;5.00;;
7831;SDS011;3961;42.058;25.586;2023-05-01T05:26:37;8.80;;;5.87;;
7831;SDS011;3961;42.058;25.586;2023-05-01T05:29:03;6.40;;;5.27;;
7831;SDS011;3961;42.058;25.586;2023-05-01T05:31:29;7.80;;;5.00;;
7831;SDS011;3961;42.058;25.586;2023-05-01T05:33:55;8.67;;;5.97;;
7831;SDS011;3961;42.058;25.586;2023-05-01T05:36:20;7.00;;;5.27;;
7831;SDS011;3961;42.058;25.586;2023-05-01T05:38:46;7.77;;;5.73;;
7831;SDS011;3961;42.058;25.586;2023-05-01T05:41:11;6.73;;;5.27;;
7831;SDS011;3961;42.058;25.586;2023-05-01T05:43:37;12.60;;;5.63;;
7831;SDS011;3961;42.058;25.586;2023-05-01T05:46:03;11.83;;;5.53;;
7831;SDS011;3961;42.058;25.586;2023-05-01T05:48:28;11.43;;;5.80;;
7831;SDS011;3961;42.058;25.586;2023-05-01T05:50:54;11.67;;;5.63;;
7831;SDS011;3961;42.058;25.586;2023-05-01T05:53:20;13.87;;;5.57;;
7831;SDS011;3961;42.058;25.586;2023-05-01T05:55:46;11.03;;;5.83;;
7831;SDS011;3961;42.058;25.586;2023-05-01T05:58:12;12.93;;;5.77;;
7831;SDS011;3961;42.058;25.586;2023-05-01T06:00:44;12.33;;;6.13;;
7831;SDS011;3961;42.058;25.586;2023-05-01T06:03:10;6.57;;;5.50;;
7831;SDS011;3961;42.058;25.586;2023-05-01T06:05:36;6.00;;;4.57;;
7831;SDS011;3961;42.058;25.586;2023-05-01T06:08:01;6.97;;;4.93;;
7831;SDS011;3961;42.058;25.586;2023-05-01T06:10:27;7.30;;;5.10;;
7831;SDS011;3961;42.058;25.586;2023-05-01T06:12:52;6.70;;;5.23;;
7831;SDS011;3961;42.058;25.586;2023-05-01T06:15:18;11.20;;;5.50;;
7831;SDS011;3961;42.058;25.586;2023-05-01T06:17:43;10.67;;;5.27;;
7831;SDS011;3961;42.058;25.586;2023-05-01T06:20:09;9.23;;;5.40;;
7831;SDS011;3961;42.058;25.586;2023-05-01T06:22:34;8.77;;;6.03;;
7831;SDS011;3961;42.058;25.586;2023-05-01T06:25:00;9.53;;;5.90;;
7831;SDS011;3961;42.058;25.586;2023-05-01T06:27:26;5.87;;;4.90;;
7831;SDS011;3961;42.058;25.586;2023-05-01T06:29:51;5.60;;;5.00;;
7831;SDS011;3961;42.058;25.586;2023-05-01T06:32:17;6.53;;;5.40;;
7831;SDS011;3961;42.058;25.586;2023-05-01T06:34:43;11.33;;;5.60;;
7831;SDS011;3961;42.058;25.586;2023-05-01T06:37:08;6.53;;;4.50;;
7831;SDS011;3961;42.058;25.586;2023-05-01T06:39:34;5.80;;;4.53;;
7831;SDS011;3961;42.058;25.586;2023-05-01T06:41:59;7.33;;;5.37;;
7831;SDS011;3961;42.058;25.586;2023-05-01T06:44:27;7.97;;;4.70;;
7831;SDS011;3961;42.058;25.586;2023-05-01T06:46:53;11.80;;;4.90;;
7831;SDS011;3961;42.058;25.586;2023-05-01T06:49:18;13.90;;;4.80;;
7831;SDS011;3961;42.058;25.586;2023-05-01T06:51:44;11.97;;;4.53;;
7831;SDS011;3961;42.058;25.586;2023-05-01T06:54:09;14.67;;;4.77;;
7831;SDS011;3961;42.058;25.586;2023-05-01T06:56:34;21.27;;;5.70;;
7831;SDS011;3961;42.058;25.586;2023-05-01T06:59:00;13.20;;;4.70;;
7831;SDS011;3961;42.058;25.586;2023-05-01T07:01:26;17.77;;;5.93;;
7831;SDS011;3961;42.058;25.586;2023-05-01T07:03:51;13.93;;;5.40;;
7831;SDS011;3961;42.058;25.586;2023-05-01T07:06:17;13.57;;;5.00;;
7831;SDS011;3961;42.058;25.586;2023-05-01T07:08:42;13.83;;;6.40;;
7831;SDS011;3961;42.058;25.586;2023-05-01T07:11:08;11.90;;;5.33;;
7831;SDS011;3961;42.058;25.586;2023-05-01T07:13:33;18.33;;;5.30;;
7831;SDS011;3961;42.058;25.586;2023-05-01T07:15:59;10.43;;;4.90;;
7831;SDS011;3961;42.058;25.586;2023-05-01T07:18:25;11.70;;;5.23;;
7831;SDS011;3961;42.058;25.586;2023-05-01T07:20:52;11.23;;;5.00;;
7831;SDS011;3961;42.058;25.586;2023-05-01T07:23:17;6.30;;;3.40;;
7831;SDS011;3961;42.058;25.586;2023-05-01T07:25:43;4.00;;;3.60;;
7831;SDS011;3961;42.058;25.586;2023-05-01T07:28:10;9.20;;;3.60;;
7831;SDS011;3961;42.058;25.586;2023-05-01T07:30:35;6.00;;;3.50;;
7831;SDS011;3961;42.058;25.586;2023-05-01T07:33:01;5.40;;;3.40;;
7831;SDS011;3961;42.058;25.586;2023-05-01T07:35:27;4.33;;;2.80;;
7831;SDS011;3961;42.058;25.586;2023-05-01T07:37:52;4.50;;;3.20;;
7831;SDS011;3961;42.058;25.586;2023-05-01T07:40:19;6.20;;;3.13;;
7831;SDS011;3961;42.058;25.586;2023-05-01T07:42:45;40.07;;;13.77;;
7831;SDS011;3961;42.058;25.586;2023-05-01T07:45:10;5.43;;;2.83;;
7831;SDS011;3961;42.058;25.586;2023-05-01T07:47:36;2.90;;;2.60;;
7831;SDS011;3961;42.058;25.586;2023-05-01T07:50:02;3.60;;;3.00;;
7831;SDS011;3961;42.058;25.586;2023-05-01T07:52:28;5.67;;;3.10;;
7831;SDS011;3961;42.058;25.586;2023-05-01T07:54:54;3.30;;;2.93;;
7831;SDS011;3961;42.058;25.586;2023-05-01T07:57:20;4.70;;;2.80;;
7831;SDS011;3961;42.058;25.586;2023-05-01T07:59:47;5.03;;;3.20;;
7831;SDS011;3961;42.058;25.586;2023-05-01T08:02:15;4.37;;;3.60;;
7831;SDS011;3961;42.058;25.586;2023-05-01T08:04:41;3.90;;;3.07;;
7831;SDS011;3961;42.058;25.586;2023-05-01T08:07:06;3.73;;;2.77;;
7831;SDS011;3961;42.058;25.586;2023-05-01T08:09:32;4.60;;;2.40;;
7831;SDS011;3961;42.058;25.586;2023-05-01T08:11:57;2.93;;;2.30;;
7831;SDS011;3961;42.058;25.586;2023-05-01T08:14:23;3.17;;;2.70;;
7831;SDS011;3961;42.058;25.586;2023-05-01T08:16:48;3.57;;;2.60;;
7831;SDS011;3961;42.058;25.586;2023-05-01T08:19:19;3.23;;;2.47;;
7831;SDS011;3961;42.058;25.586;2023-05-01T08:21:44;2.97;;;2.60;;
7831;SDS011;3961;42.058;25.586;2023-05-01T08:24:10;3.43;;;2.77;;
7831;SDS011;3961;42.058;25.586;2023-05-01T08:26:36;2.53;;;2.33;;
7831;SDS011;3961;42.058;25.586;2023-05-01T08:29:01;4.87;;;2.70;;
7831;SDS011;3961;42.058;25.586;2023-05-01T08:31:27;6.63;;;3.30;;
7831;SDS011;3961;42.058;25.586;2023-05-01T08:33:52;5.67;;;2.57;;
7831;SDS011;3961;42.058;25.586;2023-05-01T08:36:18;5.20;;;3.10;;
7831;SDS011;3961;42.058;25.586;2023-05-01T08:38:43;6.80;;;2.60;;
7831;SDS011;3961;42.058;25.586;2023-05-01T08:41:09;7.97;;;3.00;;
7831;SDS011;3961;42.058;25.586;2023-05-01T08:43:40;3.00;;;2.33;;
7831;SDS011;3961;42.058;25.586;2023-05-01T08:46:07;4.23;;;2.60;;
7831;SDS011;3961;42.058;25.586;2023-05-01T08:48:37;7.07;;;2.60;;
7831;SDS011;3961;42.058;25.586;2023-05-01T08:51:07;4.50;;;3.00;;
7831;SDS011;3961;42.058;25.586;2023-05-01T08:53:36;4.27;;;2.70;;
7831;SDS011;3961;42.058;25.586;2023-05-01T08:56:04;7.03;;;2.73;;
7831;SDS011;3961;42.058;25.586;2023-05-01T08:58:31;7.63;;;3.57;;
7831;SDS011;3961;42.058;25.586;2023-05-01T09:01:00;3.57;;;2.60;;
7831;SDS011;3961;42.058;25.586;2023-05-01T09:03:27;4.13;;;2.50;;
7831;SDS011;3961;42.058;25.586;2023-05-01T09:05:55;4.80;;;2.70;;
7831;SDS011;3961;42.058;25.586;2023-05-01T09:08:21;6.90;;;2.77;;
7831;SDS011;3961;42.058;25.586;2023-05-01T09:10:47;4.33;;;2.60;;
7831;SDS011;3961;42.058;25.586;2023-05-01T09:13:13;4.27;;;2.87;;
7831;SDS011;3961;42.058;25.586;2023-05-01T09:15:39;6.13;;;2.50;;
7831;SDS011;3961;42.058;25.586;2023-05-01T09:18:05;3.33;;;2.67;;
7831;SDS011;3961;42.058;25.586;2023-05-01T09:20:32;5.20;;;2.90;;
7831;SDS011;3961;42.058;25.586;2023-05-01T09:23:01;4.73;;;2.90;;
7831;SDS011;3961;42.058;25.586;2023-05-01T09:25:27;9.80;;;2.67;;
7831;SDS011;3961;42.058;25.586;2023-05-01T09:27:53;8.67;;;2.80;;
7831;SDS011;3961;42.058;25.586;2023-05-01T09:30:33;5.20;;;2.87;;
7831;SDS011;3961;42.058;25.586;2023-05-01T09:33:10;4.57;;;3.20;;
7831;SDS011;3961;42.058;25.586;2023-05-01T09:35:49;8.67;;;3.30;;
7831;SDS011;3961;42.058;25.586;2023-05-01T09:38:20;6.47;;;3.53;;
7831;SDS011;3961;42.058;25.586;2023-05-01T09:40:47;7.90;;;3.53;;
7831;SDS011;3961;42.058;25.586;2023-05-01T09:43:13;5.43;;;3.20;;
7831;SDS011;3961;42.058;25.586;2023-05-01T09:45:58;7.20;;;3.33;;
7831;SDS011;3961;42.058;25.586;2023-05-01T09:48:24;5.10;;;3.30;;
7831;SDS011;3961;42.058;25.586;2023-05-01T09:50:50;5.47;;;3.50;;
7831;SDS011;3961;42.058;25.586;2023-05-01T09:53:16;5.97;;;2.70;;
7831;SDS011;3961;42.058;25.586;2023-05-01T09:55:42;7.97;;;3.63;;
7831;SDS011;3961;42.058;25.586;2023-05-01T09:58:27;5.33;;;3.13;;
7831;SDS011;3961;42.058;25.586;2023-05-01T10:00:53;5.40;;;2.90;;
7831;SDS011;3961;42.058;25.586;2023-05-01T10:03:18;4.43;;;3.40;;
7831;SDS011;3961;42.058;25.586;2023-05-01T10:05:44;6.40;;;3.17;;
7831;SDS011;3961;42.058;25.586;2023-05-01T10:08:10;6.97;;;3.17;;
7831;SDS011;3961;42.058;25.586;2023-05-01T10:10:39;7.90;;;4.23;;
7831;SDS011;3961;42.058;25.586;2023-05-01T10:13:14;3.90;;;3.27;;
7831;SDS011;3961;42.058;25.586;2023-05-01T10:15:42;6.50;;;3.03;;
7831;SDS011;3961;42.058;25.586;2023-05-01T10:18:10;4.77;;;3.37;;
7831;SDS011;3961;42.058;25.586;2023-05-01T10:20:37;4.33;;;2.97;;
7831;SDS011;3961;42.058;25.586;2023-05-01T10:23:02;5.80;;;3.70;;
7831;SDS011;3961;42.058;25.586;2023-05-01T10:25:27;4.80;;;3.03;;
7831;SDS011;3961;42.058;25.586;2023-05-01T10:27:54;4.40;;;3.00;;
7831;SDS011;3961;42.058;25.586;2023-05-01T10:30:21;9.67;;;3.27;;
7831;SDS011;3961;42.058;25.586;2023-05-01T10:32:47;5.40;;;3.17;;
7831;SDS011;3961;42.058;25.586;2023-05-01T10:35:23;6.13;;;3.50;;
7831;SDS011;3961;42.058;25.586;2023-05-01T10:37:57;4.83;;;3.53;;
7831;SDS011;3961;42.058;25.586;2023-05-01T10:43:31;5.50;;;3.30;;
7831;SDS011;3961;42.058;25.586;2023-05-01T10:53:33;6.47;;;3.13;;
7831;SDS011;3961;42.058;25.586;2023-05-01T10:55:58;4.17;;;3.20;;
7831;SDS011;3961;42.058;25.586;2023-05-01T11:04:02;7.60;;;3.27;;
7831;SDS011;3961;42.058;25.586;2023-05-01T11:06:29;8.10;;;3.33;;
7831;SDS011;3961;42.058;25.586;2023-05-01T11:08:55;9.70;;;3.00;;
7831;SDS011;3961;42.058;25.586;2023-05-01T11:14:02;6.93;;;3.70;;
7831;SDS011;3961;42.058;25.586;2023-05-01T11:21:47;5.83;;;3.03;;
7831;SDS011;3961;42.058;25.586;2023-05-01T11:24:14;4.43;;;2.83;;
7831;SDS011;3961;42.058;25.586;2023-05-01T11:26:42;7.60;;;3.03;;
7831;SDS011;3961;42.058;25.586;2023-05-01T11:29:09;10.43;;;3.00;;
7831;SDS011;3961;42.058;25.586;2023-05-01T11:31:35;4.43;;;3.00;;
7831;SDS011;3961;42.058;25.586;2023-05-01T11:34:01;7.33;;;3.00;;
7831;SDS011;3961;42.058;25.586;2023-05-01T11:36:28;6.43;;;2.87;;
7831;SDS011;3961;42.058;25.586;2023-05-01T11:38:55;6.87;;;2.93;;
7831;SDS011;3961;42.058;25.586;2023-05-01T11:41:22;8.47;;;2.80;;
7831;SDS011;3961;42.058;25.586;2023-05-01T11:46:22;4.37;;;2.90;;
7831;SDS011;3961;42.058;25.586;2023-05-01T11:48:51;6.17;;;2.80;;
7831;SDS011;3961;42.058;25.586;2023-05-01T11:51:17;5.07;;;2.93;;
7831;SDS011;3961;42.058;25.586;2023-05-01T11:53:56;7.07;;;3.00;;
7831;SDS011;3961;42.058;25.586;2023-05-01T11:56:32;5.43;;;2.67;;
7831;SDS011;3961;42.058;25.586;2023-05-01T11:58:59;6.47;;;3.00;;
7831;SDS011;3961;42.058;25.586;2023-05-01T12:01:37;4.70;;;2.70;;
7831;SDS011;3961;42.058;25.586;2023-05-01T12:04:05;4.43;;;2.97;;
7831;SDS011;3961;42.058;25.586;2023-05-01T12:09:08;6.47;;;3.07;;
7831;SDS011;3961;42.058;25.586;2023-05-01T12:11:35;3.63;;;2.70;;
7831;SDS011;3961;42.058;25.586;2023-05-01T12:14:03;3.60;;;2.53;;
7831;SDS011;3961;42.058;25.586;2023-05-01T12:16:29;9.13;;;3.20;;
7831;SDS011;3961;42.058;25.586;2023-05-01T12:18:55;3.40;;;2.63;;
7831;SDS011;3961;42.058;25.586;2023-05-01T12:21:21;4.67;;;2.63;;
7831;SDS011;3961;42.058;25.586;2023-05-01T12:23:47;4.27;;;2.60;;
7831;SDS011;3961;42.058;25.586;2023-05-01T12:26:17;4.63;;;2.90;;
7831;SDS011;3961;42.058;25.586;2023-05-01T12:31:47;6.53;;;2.50;;
7831;SDS011;3961;42.058;25.586;2023-05-01T12:34:13;3.30;;;2.43;;
7831;SDS011;3961;42.058;25.586;2023-05-01T12:36:39;3.53;;;2.50;;
7831;SDS011;3961;42.058;25.586;2023-05-01T12:41:34;4.07;;;2.60;;
7831;SDS011;3961;42.058;25.586;2023-05-01T12:44:23;6.07;;;2.63;;
7831;SDS011;3961;42.058;25.586;2023-05-01T12:47:12;6.00;;;2.80;;
7831;SDS011;3961;42.058;25.586;2023-05-01T12:49:37;4.30;;;2.60;;
7831;SDS011;3961;42.058;25.586;2023-05-01T12:52:04;4.97;;;2.80;;
7831;SDS011;3961;42.058;25.586;2023-05-01T12:54:32;3.67;;;2.63;;
7831;SDS011;3961;42.058;25.586;2023-05-01T12:57:06;5.10;;;2.37;;
7831;SDS011;3961;42.058;25.586;2023-05-01T12:59:34;3.37;;;2.60;;
7831;SDS011;3961;42.058;25.586;2023-05-01T13:02:03;3.10;;;2.30;;
7831;SDS011;3961;42.058;25.586;2023-05-01T13:04:29;4.47;;;2.43;;
7831;SDS011;3961;42.058;25.586;2023-05-01T13:06:55;6.60;;;2.40;;
7831;SDS011;3961;42.058;25.586;2023-05-01T13:09:22;4.50;;;2.47;;
7831;SDS011;3961;42.058;25.586;2023-05-01T13:12:09;5.03;;;2.50;;
7831;SDS011;3961;42.058;25.586;2023-05-01T13:14:36;7.13;;;2.70;;
7831;SDS011;3961;42.058;25.586;2023-05-01T13:17:03;5.73;;;2.30;;
7831;SDS011;3961;42.058;25.586;2023-05-01T13:19:31;7.30;;;2.60;;
7831;SDS011;3961;42.058;25.586;2023-05-01T13:21:57;7.17;;;3.13;;
7831;SDS011;3961;42.058;25.586;2023-05-01T13:24:23;4.03;;;2.27;;
7831;SDS011;3961;42.058;25.586;2023-05-01T13:26:59;5.37;;;2.47;;
7831;SDS011;3961;42.058;25.586;2023-05-01T13:29:25;3.50;;;2.37;;
7831;SDS011;3961;42.058;25.586;2023-05-01T13:31:51;6.60;;;2.57;;
7831;SDS011;3961;42.058;25.586;2023-05-01T13:34:19;3.37;;;2.43;;
7831;SDS011;3961;42.058;25.586;2023-05-01T13:36:49;4.83;;;2.30;;
7831;SDS011;3961;42.058;25.586;2023-05-01T13:39:17;3.60;;;2.40;;
7831;SDS011;3961;42.058;25.586;2023-05-01T13:41:44;3.83;;;2.30;;
7831;SDS011;3961;42.058;25.586;2023-05-01T13:44:10;3.77;;;2.83;;
7831;SDS011;3961;42.058;25.586;2023-05-01T13:46:36;3.37;;;2.40;;
7831;SDS011;3961;42.058;25.586;2023-05-01T13:49:06;3.73;;;2.20;;
7831;SDS011;3961;42.058;25.586;2023-05-01T13:51:39;3.77;;;2.40;;
7831;SDS011;3961;42.058;25.586;2023-05-01T13:54:07;5.57;;;2.30;;
7831;SDS011;3961;42.058;25.586;2023-05-01T13:56:33;5.23;;;2.80;;
7831;SDS011;3961;42.058;25.586;2023-05-01T13:59:02;4.97;;;2.90;;
7831;SDS011;3961;42.058;25.586;2023-05-01T14:01:28;3.73;;;2.67;;
7831;SDS011;3961;42.058;25.586;2023-05-01T14:03:54;5.60;;;2.77;;
7831;SDS011;3961;42.058;25.586;2023-05-01T14:06:26;6.23;;;2.80;;
7831;SDS011;3961;42.058;25.586;2023-05-01T14:08:53;3.70;;;2.50;;
7831;SDS011;3961;42.058;25.586;2023-05-01T14:11:24;3.77;;;2.50;;
7831;SDS011;3961;42.058;25.586;2023-05-01T14:13:49;7.13;;;3.23;;
7831;SDS011;3961;42.058;25.586;2023-05-01T14:16:25;5.17;;;2.70;;
7831;SDS011;3961;42.058;25.586;2023-05-01T14:18:52;3.80;;;3.07;;
7831;SDS011;3961;42.058;25.586;2023-05-01T14:21:21;5.97;;;2.87;;
7831;SDS011;3961;42.058;25.586;2023-05-01T14:23:52;4.53;;;2.50;;
7831;SDS011;3961;42.058;25.586;2023-05-01T14:26:19;4.67;;;3.00;;
7831;SDS011;3961;42.058;25.586;2023-05-01T14:28:48;5.70;;;2.80;;
7831;SDS011;3961;42.058;25.586;2023-05-01T14:31:15;8.93;;;3.40;;
7831;SDS011;3961;42.058;25.586;2023-05-01T14:33:48;4.37;;;2.90;;
7831;SDS011;3961;42.058;25.586;2023-05-01T14:36:18;5.57;;;2.73;;
7831;SDS011;3961;42.058;25.586;2023-05-01T14:38:43;3.57;;;2.30;;
7831;SDS011;3961;42.058;25.586;2023-05-01T14:41:13;4.57;;;2.87;;
7831;SDS011;3961;42.058;25.586;2023-05-01T14:43:39;4.60;;;3.00;;
7831;SDS011;3961;42.058;25.586;2023-05-01T14:46:06;5.33;;;2.80;;
7831;SDS011;3961;42.058;25.586;2023-05-01T14:48:33;4.63;;;2.80;;
7831;SDS011;3961;42.058;25.586;2023-05-01T14:51:02;9.87;;;2.77;;
7831;SDS011;3961;42.058;25.586;2023-05-01T14:53:32;3.13;;;2.83;;
7831;SDS011;3961;42.058;25.586;2023-05-01T14:55:57;4.80;;;3.00;;
7831;SDS011;3961;42.058;25.586;2023-05-01T14:58:23;5.77;;;2.60;;
7831;SDS011;3961;42.058;25.586;2023-05-01T15:00:49;5.63;;;2.50;;
7831;SDS011;3961;42.058;25.586;2023-05-01T15:03:14;6.20;;;2.50;;
7831;SDS011;3961;42.058;25.586;2023-05-01T15:05:40;8.37;;;3.47;;
7831;SDS011;3961;42.058;25.586;2023-05-01T15:08:05;3.30;;;2.70;;
7831;SDS011;3961;42.058;25.586;2023-05-01T15:10:32;3.30;;;3.00;;
7831;SDS011;3961;42.058;25.586;2023-05-01T15:12:58;7.50;;;3.87;;
7831;SDS011;3961;42.058;25.586;2023-05-01T15:15:23;5.30;;;3.47;;
7831;SDS011;3961;42.058;25.586;2023-05-01T15:17:49;2.77;;;2.33;;
7831;SDS011;3961;42.058;25.586;2023-05-01T15:20:15;6.27;;;2.80;;
7831;SDS011;3961;42.058;25.586;2023-05-01T15:22:41;2.93;;;2.67;;
7831;SDS011;3961;42.058;25.586;2023-05-01T15:25:07;4.77;;;2.60;;
7831;SDS011;3961;42.058;25.586;2023-05-01T15:27:34;4.17;;;2.67;;
7831;SDS011;3961;42.058;25.586;2023-05-01T15:30:00;6.47;;;2.93;;
7831;SDS011;3961;42.058;25.586;2023-05-01T15:32:26;6.67;;;2.87;;
7831;SDS011;3961;42.058;25.586;2023-05-01T15:34:51;2.83;;;2.53;;
7831;SDS011;3961;42.058;25.586;2023-05-01T15:37:21;3.43;;;2.57;;
7831;SDS011;3961;42.058;25.586;2023-05-01T15:39:47;5.60;;;3.13;;
7831;SDS011;3961;42.058;25.586;2023-05-01T15:42:14;6.30;;;2.80;;
7831;SDS011;3961;42.058;25.586;2023-05-01T15:44:40;4.70;;;2.73;;
7831;SDS011;3961;42.058;25.586;2023-05-01T15:47:06;2.80;;;2.00;;